sensor_id;sensor_type;location;lat;lon;timestamp;P1;durP1;ratioP1;P2;durP2;ratioP2
56824;SDS011;42705;50.326;18.772;2022-07-19T00:01:10;13.73;;;7.13;;
56824;SDS011;42705;50.326;18.772;2022-07-19T00:06:31;13.70;;;7.27;;
56824;SDS011;42705;50.326;18.772;2022-07-19T00:11:53;14.63;;;7.40;;
56824;SDS011;42705;50.326;18.772;2022-07-19T00:17:16;12.58;;;6.90;;
56824;SDS011;42705;50.326;18.772;2022-07-19T00:22:37;13.72;;;7.60;;
56824;SDS011;42705;50.326;18.772;2022-07-19T00:27:58;12.47;;;6.40;;
56824;SDS011;42705;50.326;18.772;2022-07-19T00:33:19;12.35;;;6.03;;
56824;SDS011;42705;50.326;18.772;2022-07-19T00:38:40;9.37;;;5.43;;
56824;SDS011;42705;50.326;18.772;2022-07-19T00:44:00;10.80;;;5.50;;
56824;SDS011;42705;50.326;18.772;2022-07-19T00:49:22;9.93;;;5.10;;
56824;SDS011;42705;50.326;18.772;2022-07-19T00:54:43;11.05;;;5.12;;
56824;SDS011;42705;50.326;18.772;2022-07-19T01:00:04;14.63;;;5.67;;
56824;SDS011;42705;50.326;18.772;2022-07-19T01:05:28;8.98;;;5.30;;
56824;SDS011;42705;50.326;18.772;2022-07-19T01:10:49;13.83;;;6.40;;
56824;SDS011;42705;50.326;18.772;2022-07-19T01:16:10;12.45;;;6.12;;
56824;SDS011;42705;50.326;18.772;2022-07-19T01:21:31;10.55;;;6.22;;
56824;SDS011;42705;50.326;18.772;2022-07-19T01:26:52;9.97;;;5.97;;
56824;SDS011;42705;50.326;18.772;2022-07-19T01:32:13;11.97;;;6.43;;
56824;SDS011;42705;50.326;18.772;2022-07-19T01:37:34;12.15;;;6.12;;
56824;SDS011;42705;50.326;18.772;2022-07-19T01:42:57;9.68;;;5.60;;
56824;SDS011;42705;50.326;18.772;2022-07-19T01:53:49;10.10;;;6.12;;
56824;SDS011;42705;50.326;18.772;2022-07-19T01:59:10;10.20;;;5.80;;
56824;SDS011;42705;50.326;18.772;2022-07-19T02:04:31;12.03;;;6.03;;
56824;SDS011;42705;50.326;18.772;2022-07-19T02:09:52;15.20;;;5.30;;
56824;SDS011;42705;50.326;18.772;2022-07-19T02:15:13;11.17;;;6.20;;
56824;SDS011;42705;50.326;18.772;2022-07-19T02:20:34;12.10;;;6.17;;
56824;SDS011;42705;50.326;18.772;2022-07-19T02:25:55;12.23;;;6.50;;
56824;SDS011;42705;50.326;18.772;2022-07-19T02:31:15;14.80;;;6.30;;
56824;SDS011;42705;50.326;18.772;2022-07-19T02:36:36;15.23;;;5.87;;
56824;SDS011;42705;50.326;18.772;2022-07-19T02:41:57;12.25;;;6.37;;
56824;SDS011;42705;50.326;18.772;2022-07-19T02:47:18;11.88;;;6.45;;
56824;SDS011;42705;50.326;18.772;2022-07-19T02:52:39;13.75;;;5.33;;
56824;SDS011;42705;50.326;18.772;2022-07-19T02:58:00;9.83;;;6.03;;
56824;SDS011;42705;50.326;18.772;2022-07-19T03:03:20;10.40;;;6.15;;
56824;SDS011;42705;50.326;18.772;2022-07-19T03:09:00;11.15;;;5.42;;
56824;SDS011;42705;50.326;18.772;2022-07-19T03:14:21;12.60;;;6.65;;
56824;SDS011;42705;50.326;18.772;2022-07-19T03:19:41;9.93;;;5.78;;
56824;SDS011;42705;50.326;18.772;2022-07-19T03:25:03;10.63;;;6.30;;
56824;SDS011;42705;50.326;18.772;2022-07-19T03:30:25;13.85;;;6.08;;
56824;SDS011;42705;50.326;18.772;2022-07-19T03:35:46;10.13;;;5.37;;
56824;SDS011;42705;50.326;18.772;2022-07-19T03:41:07;11.00;;;5.20;;
56824;SDS011;42705;50.326;18.772;2022-07-19T03:46:28;9.60;;;5.40;;
56824;SDS011;42705;50.326;18.772;2022-07-19T03:51:49;10.45;;;5.53;;
56824;SDS011;42705;50.326;18.772;2022-07-19T03:57:10;9.57;;;5.33;;
56824;SDS011;42705;50.326;18.772;2022-07-19T04:02:31;10.68;;;4.95;;
56824;SDS011;42705;50.326;18.772;2022-07-19T04:07:52;10.03;;;5.15;;
56824;SDS011;42705;50.326;18.772;2022-07-19T04:13:14;10.20;;;5.33;;
56824;SDS011;42705;50.326;18.772;2022-07-19T04:18:34;13.08;;;5.72;;
56824;SDS011;42705;50.326;18.772;2022-07-19T04:23:55;8.68;;;5.60;;
56824;SDS011;42705;50.326;18.772;2022-07-19T04:29:16;11.78;;;5.35;;
56824;SDS011;42705;50.326;18.772;2022-07-19T04:34:38;10.35;;;5.80;;
56824;SDS011;42705;50.326;18.772;2022-07-19T04:39:58;11.73;;;5.28;;
56824;SDS011;42705;50.326;18.772;2022-07-19T04:45:19;11.83;;;5.70;;
56824;SDS011;42705;50.326;18.772;2022-07-19T04:50:40;10.10;;;5.40;;
56824;SDS011;42705;50.326;18.772;2022-07-19T04:56:01;9.40;;;5.40;;
56824;SDS011;42705;50.326;18.772;2022-07-19T05:01:22;11.50;;;5.40;;
56824;SDS011;42705;50.326;18.772;2022-07-19T05:06:43;8.98;;;5.50;;
56824;SDS011;42705;50.326;18.772;2022-07-19T05:12:04;8.40;;;5.30;;
56824;SDS011;42705;50.326;18.772;2022-07-19T05:17:27;9.63;;;4.78;;
56824;SDS011;42705;50.326;18.772;2022-07-19T05:22:49;12.65;;;6.05;;
56824;SDS011;42705;50.326;18.772;2022-07-19T05:28:09;12.33;;;5.55;;
56824;SDS011;42705;50.326;18.772;2022-07-19T05:33:30;11.85;;;5.17;;
56824;SDS011;42705;50.326;18.772;2022-07-19T05:38:51;8.97;;;5.23;;
56824;SDS011;42705;50.326;18.772;2022-07-19T05:44:13;8.98;;;5.40;;
56824;SDS011;42705;50.326;18.772;2022-07-19T05:49:34;12.05;;;5.80;;
56824;SDS011;42705;50.326;18.772;2022-07-19T05:54:55;7.78;;;5.17;;
56824;SDS011;42705;50.326;18.772;2022-07-19T06:00:16;9.23;;;5.78;;
56824;SDS011;42705;50.326;18.772;2022-07-19T06:05:36;8.38;;;5.22;;
56824;SDS011;42705;50.326;18.772;2022-07-19T06:10:57;11.45;;;5.55;;
56824;SDS011;42705;50.326;18.772;2022-07-19T06:16:18;9.93;;;5.40;;
56824;SDS011;42705;50.326;18.772;2022-07-19T06:21:40;9.63;;;4.93;;
56824;SDS011;42705;50.326;18.772;2022-07-19T06:27:01;11.00;;;4.83;;
56824;SDS011;42705;50.326;18.772;2022-07-19T06:32:22;9.70;;;4.77;;
56824;SDS011;42705;50.326;18.772;2022-07-19T06:37:42;11.48;;;5.10;;
56824;SDS011;42705;50.326;18.772;2022-07-19T06:43:03;11.95;;;5.45;;
56824;SDS011;42705;50.326;18.772;2022-07-19T06:48:24;12.53;;;4.83;;
56824;SDS011;42705;50.326;18.772;2022-07-19T06:53:45;6.13;;;4.30;;
56824;SDS011;42705;50.326;18.772;2022-07-19T06:59:06;10.85;;;5.15;;
56824;SDS011;42705;50.326;18.772;2022-07-19T07:04:27;8.15;;;4.30;;
56824;SDS011;42705;50.326;18.772;2022-07-19T07:09:48;9.13;;;4.77;;
56824;SDS011;42705;50.326;18.772;2022-07-19T07:15:09;10.60;;;4.20;;
56824;SDS011;42705;50.326;18.772;2022-07-19T07:20:30;11.70;;;4.65;;
56824;SDS011;42705;50.326;18.772;2022-07-19T07:25:51;8.25;;;3.70;;
56824;SDS011;42705;50.326;18.772;2022-07-19T07:31:14;6.70;;;3.50;;
56824;SDS011;42705;50.326;18.772;2022-07-19T07:36:35;10.75;;;3.58;;
56824;SDS011;42705;50.326;18.772;2022-07-19T07:41:55;10.53;;;3.70;;
56824;SDS011;42705;50.326;18.772;2022-07-19T07:47:16;7.93;;;3.60;;
56824;SDS011;42705;50.326;18.772;2022-07-19T07:52:37;7.00;;;3.40;;
56824;SDS011;42705;50.326;18.772;2022-07-19T07:57:58;7.92;;;3.65;;
56824;SDS011;42705;50.326;18.772;2022-07-19T08:03:19;7.40;;;2.80;;
56824;SDS011;42705;50.326;18.772;2022-07-19T08:08:40;8.97;;;2.40;;
56824;SDS011;42705;50.326;18.772;2022-07-19T08:14:01;9.70;;;2.55;;
56824;SDS011;42705;50.326;18.772;2022-07-19T08:19:23;4.70;;;1.80;;
56824;SDS011;42705;50.326;18.772;2022-07-19T08:24:43;6.57;;;2.10;;
56824;SDS011;42705;50.326;18.772;2022-07-19T08:30:05;4.47;;;1.82;;
56824;SDS011;42705;50.326;18.772;2022-07-19T08:35:28;3.90;;;1.95;;
56824;SDS011;42705;50.326;18.772;2022-07-19T08:40:50;5.37;;;2.07;;
56824;SDS011;42705;50.326;18.772;2022-07-19T08:46:12;5.83;;;1.85;;
56824;SDS011;42705;50.326;18.772;2022-07-19T08:51:33;3.67;;;1.47;;
56824;SDS011;42705;50.326;18.772;2022-07-19T09:02:34;3.92;;;1.65;;
56824;SDS011;42705;50.326;18.772;2022-07-19T09:08:14;3.90;;;1.77;;
56824;SDS011;42705;50.326;18.772;2022-07-19T09:13:26;3.12;;;1.67;;
56824;SDS011;42705;50.326;18.772;2022-07-19T09:18:47;5.00;;;1.60;;
56824;SDS011;42705;50.326;18.772;2022-07-19T09:24:08;4.60;;;1.87;;
56824;SDS011;42705;50.326;18.772;2022-07-19T09:29:30;4.40;;;1.80;;
56824;SDS011;42705;50.326;18.772;2022-07-19T09:34:54;3.30;;;1.70;;
56824;SDS011;42705;50.326;18.772;2022-07-19T09:40:29;3.35;;;1.72;;
56824;SDS011;42705;50.326;18.772;2022-07-19T09:45:49;3.00;;;1.60;;
56824;SDS011;42705;50.326;18.772;2022-07-19T09:51:10;4.23;;;2.03;;
56824;SDS011;42705;50.326;18.772;2022-07-19T09:56:32;4.85;;;1.30;;
56824;SDS011;42705;50.326;18.772;2022-07-19T10:01:54;1.95;;;1.40;;
56824;SDS011;42705;50.326;18.772;2022-07-19T10:07:16;3.92;;;1.50;;
56824;SDS011;42705;50.326;18.772;2022-07-19T10:12:39;5.50;;;1.80;;
56824;SDS011;42705;50.326;18.772;2022-07-19T10:18:13;2.87;;;1.60;;
56824;SDS011;42705;50.326;18.772;2022-07-19T10:23:38;7.08;;;1.70;;
56824;SDS011;42705;50.326;18.772;2022-07-19T10:29:14;3.13;;;1.60;;
56824;SDS011;42705;50.326;18.772;2022-07-19T10:34:33;3.17;;;1.20;;
56824;SDS011;42705;50.326;18.772;2022-07-19T10:39:57;3.50;;;1.40;;
56824;SDS011;42705;50.326;18.772;2022-07-19T10:45:19;3.42;;;1.30;;
56824;SDS011;42705;50.326;18.772;2022-07-19T10:50:44;3.92;;;1.35;;
56824;SDS011;42705;50.326;18.772;2022-07-19T10:56:17;5.40;;;1.53;;
56824;SDS011;42705;50.326;18.772;2022-07-19T11:01:54;2.65;;;1.30;;
56824;SDS011;42705;50.326;18.772;2022-07-19T11:07:20;3.72;;;1.30;;
56824;SDS011;42705;50.326;18.772;2022-07-19T11:12:43;2.45;;;1.30;;
56824;SDS011;42705;50.326;18.772;2022-07-19T11:18:06;4.35;;;1.37;;
56824;SDS011;42705;50.326;18.772;2022-07-19T11:23:28;4.10;;;1.50;;
56824;SDS011;42705;50.326;18.772;2022-07-19T11:28:52;3.42;;;1.20;;
56824;SDS011;42705;50.326;18.772;2022-07-19T11:34:14;3.10;;;1.20;;
56824;SDS011;42705;50.326;18.772;2022-07-19T11:39:47;1.75;;;1.20;;
56824;SDS011;42705;50.326;18.772;2022-07-19T11:45:11;3.35;;;1.50;;
56824;SDS011;42705;50.326;18.772;2022-07-19T11:50:38;5.35;;;1.37;;
56824;SDS011;42705;50.326;18.772;2022-07-19T11:56:01;2.70;;;1.50;;
56824;SDS011;42705;50.326;18.772;2022-07-19T12:01:28;3.17;;;1.50;;
56824;SDS011;42705;50.326;18.772;2022-07-19T12:06:59;1.90;;;1.20;;
56824;SDS011;42705;50.326;18.772;2022-07-19T12:12:19;2.87;;;1.20;;
56824;SDS011;42705;50.326;18.772;2022-07-19T12:17:53;4.15;;;1.60;;
56824;SDS011;42705;50.326;18.772;2022-07-19T12:23:10;2.47;;;1.20;;
56824;SDS011;42705;50.326;18.772;2022-07-19T12:28:37;5.37;;;1.37;;
56824;SDS011;42705;50.326;18.772;2022-07-19T12:34:03;2.17;;;1.07;;
56824;SDS011;42705;50.326;18.772;2022-07-19T12:39:22;2.65;;;1.60;;
56824;SDS011;42705;50.326;18.772;2022-07-19T12:44:47;2.47;;;1.30;;
56824;SDS011;42705;50.326;18.772;2022-07-19T12:50:18;5.05;;;1.70;;
56824;SDS011;42705;50.326;18.772;2022-07-19T12:55:45;3.12;;;1.22;;
56824;SDS011;42705;50.326;18.772;2022-07-19T13:01:07;3.90;;;1.20;;
56824;SDS011;42705;50.326;18.772;2022-07-19T13:06:28;2.87;;;1.30;;
56824;SDS011;42705;50.326;18.772;2022-07-19T13:11:49;2.92;;;1.10;;
56824;SDS011;42705;50.326;18.772;2022-07-19T13:17:10;2.40;;;1.27;;
56824;SDS011;42705;50.326;18.772;2022-07-19T13:22:31;3.55;;;1.10;;
56824;SDS011;42705;50.326;18.772;2022-07-19T13:27:52;2.33;;;1.27;;
56824;SDS011;42705;50.326;18.772;2022-07-19T13:33:13;3.50;;;1.20;;
56824;SDS011;42705;50.326;18.772;2022-07-19T13:38:34;2.05;;;1.30;;
56824;SDS011;42705;50.326;18.772;2022-07-19T13:43:59;2.90;;;1.00;;
56824;SDS011;42705;50.326;18.772;2022-07-19T13:49:20;2.95;;;1.75;;
56824;SDS011;42705;50.326;18.772;2022-07-19T13:54:42;2.40;;;1.32;;
56824;SDS011;42705;50.326;18.772;2022-07-19T14:00:03;2.52;;;1.05;;
56824;SDS011;42705;50.326;18.772;2022-07-19T14:05:29;3.00;;;1.12;;
56824;SDS011;42705;50.326;18.772;2022-07-19T14:10:54;2.80;;;1.50;;
56824;SDS011;42705;50.326;18.772;2022-07-19T14:16:16;2.30;;;1.25;;
56824;SDS011;42705;50.326;18.772;2022-07-19T14:21:37;4.15;;;1.30;;
56824;SDS011;42705;50.326;18.772;2022-07-19T14:26:58;3.05;;;1.05;;
56824;SDS011;42705;50.326;18.772;2022-07-19T14:32:19;3.00;;;1.00;;
56824;SDS011;42705;50.326;18.772;2022-07-19T14:37:40;2.67;;;1.05;;
56824;SDS011;42705;50.326;18.772;2022-07-19T14:43:01;2.85;;;1.30;;
56824;SDS011;42705;50.326;18.772;2022-07-19T14:48:22;3.20;;;1.20;;
56824;SDS011;42705;50.326;18.772;2022-07-19T14:53:43;1.87;;;1.00;;
56824;SDS011;42705;50.326;18.772;2022-07-19T14:59:04;3.93;;;1.10;;
56824;SDS011;42705;50.326;18.772;2022-07-19T15:04:26;3.33;;;1.30;;
56824;SDS011;42705;50.326;18.772;2022-07-19T15:09:47;1.50;;;1.20;;
56824;SDS011;42705;50.326;18.772;2022-07-19T15:15:08;5.22;;;1.10;;
56824;SDS011;42705;50.326;18.772;2022-07-19T15:20:30;3.45;;;1.35;;
56824;SDS011;42705;50.326;18.772;2022-07-19T15:25:53;3.47;;;1.40;;
56824;SDS011;42705;50.326;18.772;2022-07-19T15:31:13;2.45;;;1.35;;
56824;SDS011;42705;50.326;18.772;2022-07-19T15:36:34;2.25;;;1.07;;
56824;SDS011;42705;50.326;18.772;2022-07-19T15:41:55;2.60;;;1.77;;
56824;SDS011;42705;50.326;18.772;2022-07-19T15:47:16;3.47;;;1.60;;
56824;SDS011;42705;50.326;18.772;2022-07-19T15:52:37;2.70;;;1.20;;
56824;SDS011;42705;50.326;18.772;2022-07-19T15:57:59;4.87;;;1.57;;
56824;SDS011;42705;50.326;18.772;2022-07-19T16:03:21;2.22;;;1.27;;
56824;SDS011;42705;50.326;18.772;2022-07-19T16:08:41;3.33;;;1.27;;
56824;SDS011;42705;50.326;18.772;2022-07-19T16:14:02;3.27;;;1.35;;
56824;SDS011;42705;50.326;18.772;2022-07-19T16:19:23;2.47;;;1.20;;
56824;SDS011;42705;50.326;18.772;2022-07-19T16:24:44;4.08;;;2.33;;
56824;SDS011;42705;50.326;18.772;2022-07-19T16:30:06;3.08;;;1.35;;
56824;SDS011;42705;50.326;18.772;2022-07-19T16:35:28;2.92;;;1.30;;
56824;SDS011;42705;50.326;18.772;2022-07-19T16:40:49;5.53;;;1.27;;
56824;SDS011;42705;50.326;18.772;2022-07-19T16:46:10;9.45;;;1.72;;
56824;SDS011;42705;50.326;18.772;2022-07-19T16:51:31;3.70;;;1.57;;
56824;SDS011;42705;50.326;18.772;2022-07-19T16:56:52;3.73;;;1.43;;
56824;SDS011;42705;50.326;18.772;2022-07-19T17:02:12;3.17;;;1.60;;
56824;SDS011;42705;50.326;18.772;2022-07-19T17:07:34;6.05;;;1.50;;
56824;SDS011;42705;50.326;18.772;2022-07-19T17:12:56;3.75;;;1.50;;
56824;SDS011;42705;50.326;18.772;2022-07-19T17:18:17;3.22;;;1.55;;
56824;SDS011;42705;50.326;18.772;2022-07-19T17:23:38;3.52;;;1.62;;
56824;SDS011;42705;50.326;18.772;2022-07-19T17:28:58;4.50;;;1.60;;
56824;SDS011;42705;50.326;18.772;2022-07-19T17:34:19;9.28;;;6.47;;
56824;SDS011;42705;50.326;18.772;2022-07-19T17:39:40;4.00;;;2.47;;
56824;SDS011;42705;50.326;18.772;2022-07-19T17:45:04;5.60;;;2.40;;
56824;SDS011;42705;50.326;18.772;2022-07-19T17:50:26;3.75;;;1.65;;
56824;SDS011;42705;50.326;18.772;2022-07-19T17:55:47;3.10;;;1.82;;
56824;SDS011;42705;50.326;18.772;2022-07-19T18:01:08;3.30;;;1.95;;
56824;SDS011;42705;50.326;18.772;2022-07-19T18:06:29;7.42;;;2.02;;
56824;SDS011;42705;50.326;18.772;2022-07-19T18:11:52;4.20;;;2.05;;
56824;SDS011;42705;50.326;18.772;2022-07-19T18:17:13;5.35;;;2.20;;
56824;SDS011;42705;50.326;18.772;2022-07-19T18:22:33;4.60;;;2.37;;
56824;SDS011;42705;50.326;18.772;2022-07-19T18:27:56;4.40;;;2.17;;
56824;SDS011;42705;50.326;18.772;2022-07-19T18:33:17;6.28;;;2.22;;
56824;SDS011;42705;50.326;18.772;2022-07-19T18:38:38;4.25;;;2.22;;
56824;SDS011;42705;50.326;18.772;2022-07-19T18:43:59;3.25;;;2.17;;
56824;SDS011;42705;50.326;18.772;2022-07-19T18:49:20;5.05;;;2.37;;
56824;SDS011;42705;50.326;18.772;2022-07-19T18:54:41;6.80;;;2.42;;
56824;SDS011;42705;50.326;18.772;2022-07-19T19:00:03;4.78;;;2.58;;
56824;SDS011;42705;50.326;18.772;2022-07-19T19:05:26;4.45;;;3.05;;
56824;SDS011;42705;50.326;18.772;2022-07-19T19:10:47;6.72;;;2.90;;
56824;SDS011;42705;50.326;18.772;2022-07-19T19:16:09;6.65;;;3.60;;
56824;SDS011;42705;50.326;18.772;2022-07-19T19:26:50;8.87;;;4.90;;
56824;SDS011;42705;50.326;18.772;2022-07-19T19:32:11;11.93;;;5.80;;
56824;SDS011;42705;50.326;18.772;2022-07-19T19:37:34;12.15;;;5.87;;
56824;SDS011;42705;50.326;18.772;2022-07-19T19:42:56;11.53;;;5.53;;
56824;SDS011;42705;50.326;18.772;2022-07-19T19:48:18;16.15;;;6.28;;
56824;SDS011;42705;50.326;18.772;2022-07-19T19:53:40;8.40;;;5.55;;
56824;SDS011;42705;50.326;18.772;2022-07-19T19:59:01;12.53;;;5.22;;
56824;SDS011;42705;50.326;18.772;2022-07-19T20:04:22;13.03;;;7.25;;
56824;SDS011;42705;50.326;18.772;2022-07-19T20:09:44;10.78;;;5.92;;
56824;SDS011;42705;50.326;18.772;2022-07-19T20:15:05;12.05;;;6.90;;
56824;SDS011;42705;50.326;18.772;2022-07-19T20:20:29;11.38;;;6.65;;
56824;SDS011;42705;50.326;18.772;2022-07-19T20:25:49;13.33;;;6.70;;
56824;SDS011;42705;50.326;18.772;2022-07-19T20:31:10;11.23;;;6.77;;
56824;SDS011;42705;50.326;18.772;2022-07-19T20:41:52;9.20;;;5.17;;
56824;SDS011;42705;50.326;18.772;2022-07-19T20:53:00;10.35;;;6.70;;
56824;SDS011;42705;50.326;18.772;2022-07-19T20:58:21;14.33;;;6.85;;
56824;SDS011;42705;50.326;18.772;2022-07-19T21:03:42;17.07;;;6.67;;
56824;SDS011;42705;50.326;18.772;2022-07-19T21:14:25;13.30;;;5.90;;
56824;SDS011;42705;50.326;18.772;2022-07-19T21:19:45;12.60;;;6.70;;
56824;SDS011;42705;50.326;18.772;2022-07-19T21:30:28;11.60;;;6.07;;
56824;SDS011;42705;50.326;18.772;2022-07-19T21:35:49;18.30;;;8.40;;
56824;SDS011;42705;50.326;18.772;2022-07-19T21:41:10;12.57;;;6.53;;
56824;SDS011;42705;50.326;18.772;2022-07-19T21:46:31;14.33;;;7.08;;
56824;SDS011;42705;50.326;18.772;2022-07-19T21:51:52;10.03;;;6.90;;
56824;SDS011;42705;50.326;18.772;2022-07-19T21:57:13;15.33;;;7.93;;
56824;SDS011;42705;50.326;18.772;2022-07-19T22:02:33;20.57;;;10.03;;
56824;SDS011;42705;50.326;18.772;2022-07-19T22:07:54;17.98;;;9.98;;
56824;SDS011;42705;50.326;18.772;2022-07-19T22:13:15;16.43;;;10.07;;
56824;SDS011;42705;50.326;18.772;2022-07-19T22:18:36;20.53;;;12.23;;
56824;SDS011;42705;50.326;18.772;2022-07-19T22:23:57;22.27;;;12.47;;
56824;SDS011;42705;50.326;18.772;2022-07-19T22:29:18;22.33;;;13.50;;
56824;SDS011;42705;50.326;18.772;2022-07-19T22:34:39;19.25;;;12.20;;
56824;SDS011;42705;50.326;18.772;2022-07-19T22:40:03;18.37;;;10.58;;
56824;SDS011;42705;50.326;18.772;2022-07-19T22:45:27;17.60;;;9.83;;
56824;SDS011;42705;50.326;18.772;2022-07-19T22:50:47;17.33;;;10.20;;
56824;SDS011;42705;50.326;18.772;2022-07-19T22:56:10;14.03;;;8.10;;
56824;SDS011;42705;50.326;18.772;2022-07-19T23:01:31;14.90;;;9.00;;
56824;SDS011;42705;50.326;18.772;2022-07-19T23:06:52;14.67;;;7.97;;
56824;SDS011;42705;50.326;18.772;2022-07-19T23:12:13;18.80;;;9.57;;
56824;SDS011;42705;50.326;18.772;2022-07-19T23:17:34;19.07;;;9.75;;
56824;SDS011;42705;50.326;18.772;2022-07-19T23:22:55;18.97;;;10.13;;
56824;SDS011;42705;50.326;18.772;2022-07-19T23:28:15;18.73;;;10.07;;
56824;SDS011;42705;50.326;18.772;2022-07-19T23:33:36;20.45;;;10.40;;
56824;SDS011;42705;50.326;18.772;2022-07-19T23:38:57;23.93;;;10.73;;
56824;SDS011;42705;50.326;18.772;2022-07-19T23:44:18;21.83;;;9.80;;
56824;SDS011;42705;50.326;18.772;2022-07-19T23:49:38;19.67;;;9.83;;
56824;SDS011;42705;50.326;18.772;2022-07-19T23:54:59;17.00;;;9.23;;
